AUE weather

Abu Rudeis Airport
Abu Rudeis, South Sinai Governorate, Egypt

Public forecast

Using degrees Celsius for public forecast. Weather courtesy of forecast.io.

Closest aviation weather report (METAR) to Abu Rudeis Airport

Report is more than 6 hours old.

Closest report is St Catherine International Airport, 47.0 nm (87.1 km) ESE. Retrieved 2019/10/12 22:00 UTC (3 days ago):

HESC 122200Z 00000KT CAVOK 17/08 Q1024 NOSIG

Closest aviation forecast (TAF) to Abu Rudeis Airport

Closest forecast is St Catherine International Airport, 47.0 nm (87.1 km) ESE. Retrieved 2019/10/16 06:06 UTC (3 hours ago):

TAF HESC 160500Z 1606/1712 32013KT 9999 SCT020